createdAt,value
2018-05-31T00:00:30.589Z,4.00
2018-05-31T00:02:58.070Z,4.00
2018-05-31T00:05:26.353Z,4.10
2018-05-31T00:07:54.594Z,4.00
2018-05-31T00:10:22.871Z,4.23
2018-05-31T00:12:51.889Z,3.93
2018-05-31T00:15:20.141Z,4.10
2018-05-31T00:17:48.423Z,4.70
2018-05-31T00:20:15.912Z,5.67
2018-05-31T00:22:43.425Z,4.70
2018-05-31T00:25:10.938Z,4.60
2018-05-31T00:27:39.171Z,4.83
2018-05-31T00:30:06.649Z,4.30
2018-05-31T00:32:34.926Z,4.63
2018-05-31T00:35:03.171Z,3.60
2018-05-31T00:37:30.657Z,3.67
2018-05-31T00:39:58.897Z,3.97
2018-05-31T00:42:26.413Z,4.67
2018-05-31T00:44:53.890Z,4.27
2018-05-31T00:47:21.386Z,4.37
2018-05-31T00:49:48.856Z,3.73
2018-05-31T00:52:16.382Z,4.60
2018-05-31T00:54:43.849Z,4.73
2018-05-31T00:57:11.313Z,4.80
2018-05-31T00:59:38.805Z,4.27
2018-05-31T01:02:07.065Z,4.13
2018-05-31T01:04:34.564Z,4.20
2018-05-31T01:07:02.034Z,4.67
2018-05-31T01:09:29.538Z,4.07
2018-05-31T01:11:57.826Z,4.00
2018-05-31T01:14:25.285Z,4.83
2018-05-31T01:16:52.773Z,4.53
2018-05-31T01:19:20.265Z,5.03
2018-05-31T01:21:47.771Z,4.03
2018-05-31T01:24:16.027Z,4.77
2018-05-31T01:26:43.656Z,3.77
2018-05-31T01:29:11.137Z,4.40
2018-05-31T01:31:38.634Z,4.37
2018-05-31T01:34:06.882Z,4.20
2018-05-31T01:36:35.897Z,4.80
2018-05-31T01:39:04.138Z,4.07
2018-05-31T01:41:31.645Z,4.80
2018-05-31T01:43:59.155Z,3.83
2018-05-31T01:46:26.665Z,4.73
2018-05-31T01:48:54.922Z,4.60
2018-05-31T01:51:22.426Z,4.03
2018-05-31T01:53:49.921Z,3.80
2018-05-31T01:56:18.346Z,4.20
2018-05-31T01:58:45.852Z,4.57
2018-05-31T02:01:13.369Z,4.20
2018-05-31T02:03:40.840Z,4.03
2018-05-31T02:06:08.325Z,3.30
2018-05-31T02:08:35.812Z,4.10
2018-05-31T02:11:03.317Z,4.23
2018-05-31T02:13:30.812Z,4.50
2018-05-31T02:15:59.784Z,4.40
2018-05-31T02:18:27.289Z,3.63
2018-05-31T02:20:55.522Z,3.83
2018-05-31T02:23:23.025Z,4.20
2018-05-31T02:25:51.286Z,4.27
2018-05-31T02:28:18.793Z,4.50
2018-05-31T02:30:46.261Z,3.70
2018-05-31T02:33:13.761Z,3.77
2018-05-31T02:35:41.245Z,3.93
2018-05-31T02:38:08.765Z,4.40
2018-05-31T02:40:36.243Z,4.03
2018-05-31T02:43:03.734Z,4.73
2018-05-31T02:45:31.256Z,3.97
2018-05-31T02:47:59.526Z,4.33
2018-05-31T02:50:28.529Z,4.30
2018-05-31T02:52:56.037Z,4.60
2018-05-31T02:55:23.536Z,4.40
2018-05-31T02:57:51.005Z,3.97
2018-05-31T03:00:18.512Z,4.10
2018-05-31T03:02:46.002Z,4.30
2018-05-31T03:05:13.494Z,4.93
2018-05-31T03:07:41.769Z,3.70
2018-05-31T03:10:09.267Z,4.03
2018-05-31T03:12:36.758Z,4.73
2018-05-31T03:15:04.262Z,4.40
2018-05-31T03:17:31.734Z,4.13
2018-05-31T03:19:59.235Z,3.97
2018-05-31T03:22:26.705Z,4.57
2018-05-31T03:24:54.968Z,4.00
2018-05-31T03:27:22.458Z,4.20
2018-05-31T03:29:50.697Z,4.30
2018-05-31T03:32:18.225Z,4.20
2018-05-31T03:34:45.706Z,4.70
2018-05-31T03:37:13.229Z,5.30
2018-05-31T03:39:41.500Z,4.30
2018-05-31T03:42:09.007Z,4.17
2018-05-31T03:44:36.504Z,3.50
2018-05-31T03:47:04.777Z,4.13
2018-05-31T03:49:33.019Z,4.20
2018-05-31T03:52:00.537Z,4.17
2018-05-31T03:54:28.041Z,4.47
2018-05-31T03:56:55.514Z,4.60
2018-05-31T03:59:23.793Z,5.00
2018-05-31T04:01:52.058Z,4.50
2018-05-31T04:04:19.573Z,4.50
2018-05-31T04:06:47.710Z,5.10
2018-05-31T04:09:15.981Z,4.60
2018-05-31T04:11:44.357Z,5.17
2018-05-31T04:14:12.628Z,5.10
2018-05-31T04:16:40.113Z,4.87
2018-05-31T04:19:08.378Z,5.13
2018-05-31T04:21:36.625Z,4.87
2018-05-31T04:24:04.143Z,5.67
2018-05-31T04:26:31.636Z,5.77
2018-05-31T04:28:59.166Z,5.90
2018-05-31T04:31:26.639Z,5.10
2018-05-31T04:33:54.137Z,5.93
2018-05-31T04:36:21.617Z,5.90
2018-05-31T04:38:49.881Z,5.70
2018-05-31T04:41:18.154Z,5.53
2018-05-31T04:43:45.657Z,5.43
2018-05-31T04:46:13.174Z,5.40
2018-05-31T04:48:40.669Z,5.43
2018-05-31T04:51:08.156Z,5.87
2018-05-31T04:53:35.691Z,6.37
2018-05-31T04:56:03.917Z,5.90
2018-05-31T04:58:31.398Z,5.50
2018-05-31T05:00:59.650Z,6.50
2018-05-31T05:03:27.114Z,7.03
2018-05-31T05:05:56.121Z,6.30
2018-05-31T05:08:23.605Z,6.07
2018-05-31T05:10:51.089Z,7.07
2018-05-31T05:13:18.578Z,6.40
2018-05-31T05:15:47.574Z,6.97
2018-05-31T05:18:15.108Z,7.23
2018-05-31T05:20:42.603Z,6.10
2018-05-31T05:23:11.618Z,6.40
2018-05-31T05:25:40.109Z,6.80
2018-05-31T05:28:07.619Z,5.57
2018-05-31T05:30:35.109Z,6.73
2018-05-31T05:33:03.532Z,6.60
2018-05-31T05:35:31.066Z,6.87
2018-05-31T05:37:58.924Z,6.90
2018-05-31T05:40:27.185Z,6.00
2018-05-31T05:42:55.531Z,6.30
2018-05-31T05:45:23.017Z,6.80
2018-05-31T05:47:50.558Z,7.00
2018-05-31T05:50:18.043Z,6.43
2018-05-31T05:52:46.214Z,7.03
2018-05-31T05:55:13.785Z,7.87
2018-05-31T05:57:42.035Z,6.57
2018-05-31T06:00:11.033Z,6.70
2018-05-31T06:02:40.013Z,6.70
2018-05-31T06:05:07.511Z,6.20
2018-05-31T06:07:35.822Z,6.80
2018-05-31T06:10:03.609Z,5.77
2018-05-31T06:12:31.064Z,6.20
2018-05-31T06:14:58.627Z,5.87
2018-05-31T06:17:26.094Z,5.70
2018-05-31T06:19:53.648Z,6.37
2018-05-31T06:22:21.241Z,6.13
2018-05-31T06:24:49.508Z,5.80
2018-05-31T06:27:17.468Z,6.70
2018-05-31T06:29:45.108Z,5.67
2018-05-31T06:32:12.666Z,5.40
2018-05-31T06:34:40.170Z,6.30
2018-05-31T06:37:08.448Z,6.00
2018-05-31T06:39:36.696Z,5.37
2018-05-31T06:42:04.193Z,5.20
2018-05-31T06:44:32.663Z,4.87
2018-05-31T06:47:00.158Z,5.23
2018-05-31T06:49:27.657Z,4.70
2018-05-31T06:51:55.168Z,5.17
2018-05-31T06:54:22.712Z,4.97
2018-05-31T06:56:50.161Z,5.40
2018-05-31T06:59:18.423Z,5.73
2018-05-31T07:01:45.942Z,5.63
2018-05-31T07:04:13.456Z,6.07
2018-05-31T07:06:40.917Z,5.20
2018-05-31T07:09:09.187Z,5.27
2018-05-31T07:11:36.641Z,4.77
2018-05-31T07:14:04.139Z,5.37
2018-05-31T07:16:31.625Z,5.00
2018-05-31T07:18:59.153Z,5.07
2018-05-31T07:21:26.621Z,4.73
2018-05-31T07:23:54.137Z,6.33
2018-05-31T07:26:21.601Z,4.67
2018-05-31T07:28:49.882Z,4.70
2018-05-31T07:31:18.133Z,5.00
2018-05-31T07:33:45.639Z,4.77
2018-05-31T07:36:13.165Z,4.17
2018-05-31T07:38:40.632Z,4.23
2018-05-31T07:41:08.082Z,4.47
2018-05-31T07:43:35.570Z,4.57
2018-05-31T07:46:03.078Z,3.97
2018-05-31T07:48:30.536Z,4.17
2018-05-31T07:50:58.037Z,4.47
2018-05-31T07:53:26.297Z,4.67
2018-05-31T07:55:54.558Z,4.20
2018-05-31T07:58:22.079Z,4.20
2018-05-31T08:00:49.528Z,4.00
2018-05-31T08:03:16.995Z,4.10
2018-05-31T08:05:44.551Z,3.93
2018-05-31T08:08:11.973Z,4.13
2018-05-31T08:10:40.260Z,4.30
2018-05-31T08:13:08.507Z,3.93
2018-05-31T08:15:36.785Z,4.67
2018-05-31T08:18:04.242Z,4.67
2018-05-31T08:20:31.757Z,4.43
2018-05-31T08:22:59.226Z,5.03
2018-05-31T08:25:26.727Z,3.83
2018-05-31T08:27:54.985Z,4.43
2018-05-31T08:30:22.510Z,4.30
2018-05-31T08:32:50.018Z,4.83
2018-05-31T08:35:18.308Z,5.00
2018-05-31T08:37:46.561Z,4.60
2018-05-31T08:40:14.072Z,4.43
2018-05-31T08:42:41.590Z,4.87
2018-05-31T08:45:09.872Z,5.90
2018-05-31T08:47:38.892Z,5.63
2018-05-31T08:50:06.371Z,5.40
2018-05-31T08:52:33.885Z,5.67
2018-05-31T08:55:01.383Z,5.73
2018-05-31T08:57:28.868Z,6.10
2018-05-31T08:59:56.366Z,5.00
2018-05-31T09:02:24.630Z,6.17
2018-05-31T09:04:52.897Z,5.80
2018-05-31T09:07:20.410Z,6.80
2018-05-31T09:09:47.893Z,6.20
2018-05-31T09:12:15.385Z,7.10
2018-05-31T09:14:44.420Z,6.83
2018-05-31T09:17:11.905Z,6.53
2018-05-31T09:19:39.420Z,6.60
2018-05-31T09:22:07.649Z,6.20
2018-05-31T09:24:35.114Z,5.70
2018-05-31T09:27:02.599Z,6.33
2018-05-31T09:29:30.882Z,5.93
2018-05-31T09:31:59.179Z,6.20
2018-05-31T09:34:26.678Z,6.60
2018-05-31T09:36:54.199Z,7.67
2018-05-31T09:39:21.666Z,5.73
2018-05-31T09:41:49.157Z,5.83
2018-05-31T09:44:16.638Z,6.53
2018-05-31T09:46:44.168Z,6.00
2018-05-31T09:49:11.642Z,7.10
2018-05-31T09:51:39.165Z,6.20
2018-05-31T09:54:06.659Z,6.77
2018-05-31T09:56:34.917Z,7.23
2018-05-31T09:59:02.414Z,6.10
2018-05-31T10:01:29.930Z,6.70
2018-05-31T10:03:57.448Z,6.80
2018-05-31T10:06:25.717Z,6.37
2018-05-31T10:08:53.988Z,6.67
2018-05-31T10:11:22.233Z,7.00
2018-05-31T10:13:49.734Z,6.80
2018-05-31T10:16:17.953Z,7.00
2018-05-31T10:18:45.454Z,7.43
2018-05-31T10:21:12.945Z,6.37
2018-05-31T10:23:40.437Z,6.13
2018-05-31T10:26:07.918Z,6.70
2018-05-31T10:28:35.413Z,6.80
2018-05-31T10:31:02.888Z,7.87
2018-05-31T10:33:30.396Z,7.13
2018-05-31T10:35:57.857Z,6.40
2018-05-31T10:38:25.363Z,7.03
2018-05-31T10:40:52.924Z,6.97
2018-05-31T10:43:21.154Z,6.93
2018-05-31T10:45:48.627Z,7.03
2018-05-31T10:48:16.896Z,7.30
2018-05-31T10:50:45.864Z,6.90
2018-05-31T10:53:13.373Z,7.03
2018-05-31T10:55:40.875Z,7.43
2018-05-31T10:58:08.342Z,6.87
2018-05-31T11:00:35.848Z,7.30
2018-05-31T11:03:03.350Z,8.13
2018-05-31T11:05:30.878Z,7.20
2018-05-31T11:07:58.340Z,7.47
2018-05-31T11:10:25.827Z,5.90
2018-05-31T11:12:53.357Z,6.90
2018-05-31T11:15:20.899Z,6.50
2018-05-31T11:17:49.149Z,7.23
2018-05-31T11:20:16.622Z,6.50
2018-05-31T11:22:44.892Z,6.00
2018-05-31T11:25:13.128Z,6.93
2018-05-31T11:27:40.630Z,6.87
2018-05-31T11:30:08.886Z,6.40
2018-05-31T11:32:36.396Z,6.80
2018-05-31T11:35:03.876Z,6.70
2018-05-31T11:37:31.369Z,7.27
2018-05-31T11:39:58.839Z,5.87
2018-05-31T11:42:27.118Z,6.87
2018-05-31T11:44:55.349Z,7.10
2018-05-31T11:47:22.856Z,7.10
2018-05-31T11:49:51.077Z,6.83
2018-05-31T11:52:18.605Z,7.30
2018-05-31T11:54:46.090Z,7.23
2018-05-31T11:57:13.607Z,7.13
2018-05-31T11:59:41.856Z,7.73
2018-05-31T12:02:09.331Z,7.23
2018-05-31T12:04:36.838Z,6.47
2018-05-31T12:07:04.302Z,6.63
2018-05-31T12:09:31.806Z,6.23
2018-05-31T12:11:59.286Z,6.83
2018-05-31T12:14:27.546Z,6.23
2018-05-31T12:16:55.781Z,6.93
2018-05-31T12:19:23.317Z,6.00
2018-05-31T12:21:50.785Z,6.83
2018-05-31T12:24:18.281Z,6.50
2018-05-31T12:26:45.805Z,5.50
2018-05-31T12:29:13.548Z,6.00
2018-05-31T12:31:41.029Z,6.83
2018-05-31T12:34:08.523Z,6.60
2018-05-31T12:36:36.811Z,7.50
2018-05-31T12:39:04.302Z,7.20
2018-05-31T12:41:31.829Z,7.10
2018-05-31T12:43:59.334Z,6.67
2018-05-31T12:46:27.279Z,7.67
2018-05-31T12:48:55.549Z,6.73
2018-05-31T12:51:23.845Z,5.87
2018-05-31T12:53:51.323Z,6.87
2018-05-31T12:56:19.062Z,5.60
2018-05-31T12:58:46.826Z,5.73
2018-05-31T13:01:15.142Z,7.30
2018-05-31T13:03:42.690Z,6.83
2018-05-31T13:06:10.666Z,6.10
2018-05-31T13:08:38.187Z,6.07
2018-05-31T13:11:06.438Z,6.20
2018-05-31T13:13:34.001Z,5.13
2018-05-31T13:16:01.463Z,6.30
2018-05-31T13:18:29.312Z,6.17
2018-05-31T13:20:56.815Z,6.50
2018-05-31T13:23:25.113Z,6.17
2018-05-31T13:25:52.646Z,5.40
2018-05-31T13:28:20.913Z,5.37
2018-05-31T13:30:49.301Z,5.53
2018-05-31T13:33:17.588Z,6.10
2018-05-31T13:35:45.067Z,5.47
2018-05-31T13:38:12.581Z,4.40
2018-05-31T13:40:40.833Z,5.20
2018-05-31T13:43:08.379Z,6.60
2018-05-31T13:45:35.870Z,6.40
2018-05-31T13:48:03.343Z,6.80
2018-05-31T13:50:31.654Z,6.03
2018-05-31T13:52:59.117Z,6.27
2018-05-31T13:55:26.854Z,6.13
2018-05-31T13:57:55.205Z,6.60
2018-05-31T14:00:22.811Z,6.30
2018-05-31T14:02:50.366Z,5.93
2018-05-31T14:05:17.877Z,5.93
2018-05-31T14:07:45.367Z,5.60
2018-05-31T14:10:12.869Z,6.40
2018-05-31T14:12:40.362Z,7.07
2018-05-31T14:15:07.837Z,6.60
2018-05-31T14:17:35.337Z,5.87
2018-05-31T14:20:02.842Z,6.73
2018-05-31T14:22:30.353Z,6.40
2018-05-31T14:24:57.849Z,6.20
2018-05-31T14:27:25.354Z,5.93
2018-05-31T14:29:52.828Z,6.70
2018-05-31T14:32:20.332Z,5.93
2018-05-31T14:34:47.798Z,6.17
2018-05-31T14:37:16.057Z,5.73
2018-05-31T14:39:43.562Z,6.13
2018-05-31T14:42:11.055Z,6.10
2018-05-31T14:44:38.521Z,5.93
2018-05-31T14:47:06.018Z,5.90
2018-05-31T14:49:34.250Z,6.50
2018-05-31T14:52:01.765Z,5.77
2018-05-31T14:54:29.290Z,6.83
2018-05-31T14:56:56.786Z,6.70
2018-05-31T14:59:24.274Z,5.83
2018-05-31T15:01:51.776Z,6.80
2018-05-31T15:04:20.039Z,6.20
2018-05-31T15:06:47.544Z,5.77
2018-05-31T15:09:15.058Z,5.77
2018-05-31T15:11:42.563Z,5.27
2018-05-31T15:14:10.061Z,6.13
2018-05-31T15:16:37.557Z,5.87
2018-05-31T15:19:05.806Z,5.47
2018-05-31T15:21:34.826Z,5.43
2018-05-31T15:24:03.092Z,5.87
2018-05-31T15:26:30.600Z,5.67
2018-05-31T15:28:58.101Z,6.50
2018-05-31T15:31:26.448Z,6.57
2018-05-31T15:33:53.927Z,6.33
2018-05-31T15:36:21.433Z,6.83
2018-05-31T15:38:48.956Z,6.53
2018-05-31T15:41:17.976Z,6.20
2018-05-31T15:43:46.233Z,5.50
2018-05-31T15:46:13.750Z,6.00
2018-05-31T15:48:41.245Z,6.30
2018-05-31T15:51:08.719Z,6.63
2018-05-31T15:53:36.997Z,6.53
2018-05-31T15:56:05.246Z,6.40
2018-05-31T15:58:32.734Z,4.63
2018-05-31T16:01:00.989Z,5.17
2018-05-31T16:03:29.246Z,4.80
2018-05-31T16:05:56.765Z,4.30
2018-05-31T16:08:24.261Z,4.20
2018-05-31T16:10:51.748Z,5.00
2018-05-31T16:13:19.252Z,7.40
2018-05-31T16:15:46.729Z,5.10
2018-05-31T16:18:14.226Z,5.43
2018-05-31T16:20:41.733Z,5.63
2018-05-31T16:23:09.241Z,5.30
2018-05-31T16:25:39.657Z,5.70
2018-05-31T16:28:07.168Z,5.40
2018-05-31T16:30:34.689Z,5.03
2018-05-31T16:33:02.197Z,5.83
2018-05-31T16:35:29.675Z,6.13
2018-05-31T16:37:57.157Z,5.07
2018-05-31T16:40:24.663Z,5.73
2018-05-31T16:42:52.137Z,5.60
2018-05-31T16:45:20.233Z,6.30
2018-05-31T16:47:47.774Z,6.00
2018-05-31T16:50:15.335Z,6.27
2018-05-31T16:52:43.526Z,6.53
2018-05-31T16:55:11.047Z,7.20
2018-05-31T16:57:38.697Z,7.70
2018-05-31T17:00:06.437Z,8.37
2018-05-31T17:02:33.910Z,7.23
2018-05-31T17:05:02.473Z,7.07
2018-05-31T17:07:29.957Z,6.90
2018-05-31T17:09:58.231Z,6.80
2018-05-31T17:12:26.537Z,6.63
2018-05-31T17:14:55.430Z,7.07
2018-05-31T17:17:22.925Z,6.00
2018-05-31T17:19:50.531Z,6.63
2018-05-31T17:22:18.840Z,6.20
2018-05-31T17:24:46.333Z,6.23
2018-05-31T17:27:15.555Z,5.90
2018-05-31T17:29:43.797Z,6.43
2018-05-31T17:32:11.322Z,6.27
2018-05-31T17:34:38.970Z,5.90
2018-05-31T17:37:07.026Z,6.30
2018-05-31T17:39:35.284Z,6.63
2018-05-31T17:42:02.809Z,6.07
2018-05-31T17:44:30.312Z,6.00
2018-05-31T17:46:58.933Z,5.90
2018-05-31T17:49:27.138Z,6.27
2018-05-31T17:51:54.642Z,6.57
2018-05-31T17:54:22.973Z,7.47
2018-05-31T17:56:50.736Z,8.27
2018-05-31T17:59:18.537Z,7.70
2018-05-31T18:01:46.053Z,7.23
2018-05-31T18:04:13.545Z,7.20
2018-05-31T18:06:41.062Z,7.73
2018-05-31T18:09:08.570Z,7.37
2018-05-31T18:11:36.999Z,6.43
2018-05-31T18:14:05.001Z,7.40
2018-05-31T18:16:32.517Z,6.40
2018-05-31T18:19:01.384Z,6.67
2018-05-31T18:21:29.642Z,7.10
2018-05-31T18:23:57.337Z,6.63
2018-05-31T18:26:25.026Z,6.10
2018-05-31T18:28:52.513Z,6.30
2018-05-31T18:31:20.018Z,7.03
2018-05-31T18:33:47.586Z,7.70
2018-05-31T18:36:15.061Z,6.83
2018-05-31T18:38:42.598Z,7.10
2018-05-31T18:41:10.087Z,6.83
2018-05-31T18:43:37.850Z,6.40
2018-05-31T18:46:05.429Z,7.30
2018-05-31T18:48:32.929Z,7.23
2018-05-31T18:51:01.508Z,7.93
2018-05-31T18:53:29.741Z,7.03
2018-05-31T18:55:57.505Z,6.73
2018-05-31T18:58:24.999Z,7.20
2018-05-31T19:00:53.289Z,7.10
2018-05-31T19:03:24.430Z,8.27
2018-05-31T19:05:52.714Z,7.80
2018-05-31T19:08:21.601Z,7.47
2018-05-31T19:10:51.033Z,7.70
2018-05-31T19:13:24.316Z,7.27
2018-05-31T19:15:52.036Z,8.10
2018-05-31T19:21:30.528Z,8.90
2018-05-31T19:24:12.897Z,8.00
2018-05-31T19:26:41.157Z,6.73
2018-05-31T19:29:08.766Z,7.77
2018-05-31T19:31:36.269Z,6.80
2018-05-31T19:34:04.046Z,7.07
2018-05-31T19:36:37.344Z,6.20
2018-05-31T19:39:05.736Z,6.40
2018-05-31T19:41:33.985Z,6.60
2018-05-31T19:44:07.282Z,7.23
2018-05-31T19:46:34.742Z,6.70
2018-05-31T19:49:02.413Z,7.60
2018-05-31T19:51:35.579Z,8.50
2018-05-31T19:54:03.093Z,7.47
2018-05-31T19:56:31.484Z,7.67
2018-05-31T19:59:04.978Z,8.00
2018-05-31T20:01:38.841Z,7.30
2018-05-31T20:04:06.410Z,8.00
2018-05-31T20:06:34.150Z,7.83
2018-05-31T20:09:02.107Z,9.03
2018-05-31T20:11:29.602Z,7.87
2018-05-31T20:13:57.333Z,8.73
2018-05-31T20:16:24.838Z,7.70
2018-05-31T20:18:53.150Z,8.70
2018-05-31T20:21:20.607Z,7.93
2018-05-31T20:23:48.094Z,8.00
2018-05-31T20:26:15.613Z,8.50
2018-05-31T20:28:43.091Z,7.90
2018-05-31T20:31:10.612Z,6.43
2018-05-31T20:33:38.871Z,6.20
2018-05-31T20:36:06.372Z,4.60
2018-05-31T20:38:33.854Z,4.37
2018-05-31T20:41:01.345Z,4.13
2018-05-31T20:43:28.813Z,4.03
2018-05-31T20:45:56.293Z,5.17
2018-05-31T20:48:24.574Z,4.90
2018-05-31T20:50:52.848Z,5.60
2018-05-31T20:53:21.084Z,5.97
2018-05-31T20:55:48.577Z,6.40
2018-05-31T20:58:16.845Z,9.07
2018-05-31T21:00:45.137Z,7.50
2018-05-31T21:03:13.445Z,6.87
2018-05-31T21:05:40.948Z,7.63
2018-05-31T21:08:08.457Z,8.00
2018-05-31T21:10:35.929Z,6.70
2018-05-31T21:13:03.435Z,7.97
2018-05-31T21:15:31.689Z,6.83
2018-05-31T21:17:59.205Z,6.70
2018-05-31T21:20:26.804Z,6.40
2018-05-31T21:22:54.373Z,7.17
2018-05-31T21:25:22.569Z,6.10
2018-05-31T21:27:50.818Z,8.60
2018-05-31T21:30:18.313Z,8.17
2018-05-31T21:32:46.568Z,7.17
2018-05-31T21:35:14.073Z,7.40
2018-05-31T21:37:41.561Z,6.93
2018-05-31T21:40:09.063Z,6.87
2018-05-31T21:42:37.304Z,7.33
2018-05-31T21:45:04.817Z,5.97
2018-05-31T21:47:32.297Z,5.43
2018-05-31T21:49:59.807Z,6.77
2018-05-31T21:52:27.314Z,6.83
2018-05-31T21:54:54.825Z,6.40
2018-05-31T21:57:23.054Z,6.47
2018-05-31T21:59:50.554Z,5.63
2018-05-31T22:02:18.054Z,6.13
2018-05-31T22:04:45.533Z,5.90
2018-05-31T22:07:13.028Z,6.20
2018-05-31T22:09:40.510Z,7.23
2018-05-31T22:12:08.778Z,6.17
2018-05-31T22:14:37.015Z,5.60
2018-05-31T22:17:04.554Z,6.67
2018-05-31T22:19:32.021Z,6.70
2018-05-31T22:21:59.527Z,6.90
2018-05-31T22:24:27.771Z,6.10
2018-05-31T22:26:55.269Z,6.90
2018-05-31T22:29:23.517Z,6.10
2018-05-31T22:31:51.027Z,6.47
2018-05-31T22:34:18.496Z,6.30
2018-05-31T22:36:46.008Z,7.00
2018-05-31T22:39:13.469Z,7.00
2018-05-31T22:41:41.747Z,6.13
2018-05-31T22:44:10.006Z,5.77
2018-05-31T22:46:37.514Z,4.80
2018-05-31T22:49:05.033Z,5.17
2018-05-31T22:51:32.514Z,4.50
2018-05-31T22:54:00.785Z,5.27
2018-05-31T22:56:29.044Z,6.07
2018-05-31T22:58:56.654Z,5.23
2018-05-31T23:01:24.113Z,5.20
2018-05-31T23:03:51.619Z,4.67
2018-05-31T23:06:19.854Z,5.10
2018-05-31T23:08:47.353Z,5.70
2018-05-31T23:11:16.361Z,6.20
2018-05-31T23:13:44.648Z,6.20
2018-05-31T23:16:12.880Z,6.73
2018-05-31T23:18:40.351Z,6.50
2018-05-31T23:21:09.363Z,6.50
2018-05-31T23:23:36.845Z,6.70
2018-05-31T23:26:05.089Z,7.70
2018-05-31T23:28:32.565Z,7.90
2018-05-31T23:31:00.820Z,8.27
2018-05-31T23:33:28.876Z,8.40
2018-05-31T23:35:56.349Z,7.07
2018-05-31T23:38:25.329Z,7.03
2018-05-31T23:40:52.829Z,5.93
2018-05-31T23:43:21.068Z,5.13
2018-05-31T23:45:48.597Z,5.23
2018-05-31T23:48:16.104Z,4.80
2018-05-31T23:50:43.604Z,4.40
2018-05-31T23:53:11.098Z,5.00
2018-05-31T23:55:38.629Z,3.83
2018-05-31T23:58:06.174Z,3.90
